EVRA

Riga International Airport

Airport
ICAO code
EVRA
IATA Code
RIX
Summary
ICAO Region
EUR
ICAO Territory
Location

Skulte, Mārupe Municipality

Serving
Riga
Elevation
36 ft
Coordinates
56° 55' 25" N , 23° 58' 16" E
KCC
Metar
EVRA 240120Z 23002KT 9000 2700 MIFG NSC 14/14 Q1011 NOSIG

International airport serving capital of Latvia.

Climatology

Humid Continental climate (Köppen climate classification Dfb)

Runways

Designator Length Width Surface Rops
18/36 3200 45 ASP Yes/Yes

Airport map

Aerial View

Airport accidents

SKYbrary Partners:

Safety knowledge contributed by: